Have a Safe July 4th! 

Flight Track Log - Related Links

Times and Time Zones

All times are in EDT time to prevent confusion due to time zone crossing. See the AWE710 flight status page for this flight to view local times or setup timezone preferences in your user account.

Time Position Orientation Groundspeed Altitude Reporting Facility
EDT Latitude Longitude Course Direction KTS MPH feet Rate Location/Type
Thu 03:53:38 PM 32.9167 -97.0333 27° Northeast 141 162 2,100  Level Dallas / Fort Worth TRACON
Thu 03:55:15 PM 32.9997 -97.0022 17° North 192 221 5,200 1,911 Climbing Fort Worth Center
Thu 03:56:15 PM 33.0603 -96.9772 19° North 228 262 7,100 2,100 Climbing Fort Worth Center
Thu 03:57:15 PM 33.1436 -96.9469 17° North 266 306 9,400 1,750 Climbing Fort Worth Center
Thu 03:58:15 PM 33.2247 -96.9167 17° North 313 360 10,600 1,650 Climbing Fort Worth Center
Thu 03:59:00 PM 33.6772 -96.6604 27° Northeast  Level FlightAware Approximate
Thu 03:59:15 PM 33.3417 -96.8689 19° North 381 438 12,700  Level Fort Worth Center
Thu 04:00:15 PM 33.4436 -96.8283 18° North 417 480 14,500 1,950 Climbing Fort Worth Center
Thu 04:01:15 PM 33.5642 -96.7503 28° Northeast 436 502 16,600 1,900 Climbing Fort Worth Center
Thu 04:02:15 PM 33.6767 -96.6797 28° Northeast 451 519 18,300 1,900 Climbing Fort Worth Center
Thu 04:03:15 PM 33.7950 -96.6011 29° Northeast 462 532 20,400 1,900 Climbing Fort Worth Center
Thu 04:04:15 PM 33.9136 -96.5275 27° Northeast 468 539 22,100 1,600 Climbing Fort Worth Center
Thu 04:05:15 PM 34.0339 -96.4486 29° Northeast 473 544 23,600 1,300 Climbing Fort Worth Center
Thu 04:06:15 PM 34.1358 -96.3797 29° Northeast 490 564 24,700 1,350 Climbing Fort Worth Center
Thu 04:07:15 PM 34.2978 -96.3047 21° North 502 578 26,300 1,350 Climbing Fort Worth Center
Thu 04:08:15 PM 34.4331 -96.2453 20° North 513 590 27,400 1,100 Climbing Fort Worth Center
Thu 04:09:15 PM 34.5700 -96.1753 23° Northeast 518 596 28,500 1,050 Climbing Fort Worth Center
Thu 04:10:15 PM 34.6792 -96.0372 46° Northeast 529 609 29,500 1,050 Climbing Fort Worth Center
Thu 04:11:15 PM 34.7794 -95.8867 51° Northeast 542 624 30,600 1,050 Climbing Fort Worth Center
Thu 04:12:15 PM 34.8864 -95.7481 47° Northeast 550 633 31,600 1,000 Climbing Fort Worth Center
Thu 04:13:15 PM 35.0181 -95.6264 37° Northeast 565 650 32,600 1,100 Climbing Fort Worth Center
Thu 04:14:15 PM 35.1417 -95.5094 38° Northeast 570 656 33,800 1,150 Climbing Fort Worth Center
Thu 04:15:15 PM 35.2647 -95.3897 38° Northeast 565 650 34,900 600 Climbing Fort Worth Center
Thu 04:16:15 PM 35.3794 -95.2519 44° Northeast 565 650 35,000 98 Climbing Fort Worth Center
Thu 04:17:17 PM 35.4664 -95.0831 58° Northeast 545 627 35,100 541 Climbing Memphis Center
Thu 04:18:17 PM 35.5478 -94.9169 59° Northeast 557 641 36,100 950 Climbing Memphis Center
Thu 04:19:17 PM 35.6267 -94.7525 59° Northeast 557 641 37,000 450 Climbing Memphis Center
Thu 04:20:17 PM 35.7050 -94.5931 59° Northeast 557 641 37,000  Level Memphis Center
Thu 04:21:17 PM 35.7836 -94.4308 59° Northeast 551 634 37,000  Level Memphis Center
Thu 04:22:17 PM 35.8619 -94.2631 60° Northeast 551 634 37,000  Level Memphis Center
Thu 04:23:17 PM 35.9397 -94.1028 59° Northeast 546 628 37,000  Level Memphis Center
Thu 04:24:17 PM 36.0067 -93.9594 60° Northeast 546 628 37,000  Level Memphis Center
Thu 04:25:17 PM 36.0842 -93.7933 60° Northeast 541 623 37,000  Level Memphis Center
Thu 04:26:17 PM 36.1594 -93.6294 60° Northeast 541 623 37,000  Level Memphis Center
Thu 04:27:17 PM 36.2367 -93.4678 59° Northeast 541 623 37,000  Level Memphis Center
Thu 04:28:17 PM 36.3136 -93.3033 60° Northeast 541 623 37,000  Level Memphis Center
Thu 04:29:17 PM 36.3903 -93.1386 60° Northeast 541 623 37,000  Level Memphis Center
Thu 04:30:17 PM 36.4733 -92.9608 60° Northeast 536 617 37,000  Level Memphis Center
Thu 04:32:45 PM 36.6408 -92.5889 61° Northeast 543 625 37,000  Level Kansas City Center
Thu 04:33:45 PM 36.7311 -92.3939 60° Northeast 541 623 37,000  Level Kansas City Center
Thu 04:34:46 PM 36.8200 -92.2394 54° Northeast 549 632 37,000  Level Kansas City Center
Thu 04:35:49 PM 36.9178 -92.0933 50° Northeast 550 633 37,000  Level Kansas City Center
Thu 04:36:51 PM 36.9733 -91.9211 68° East 543 625 37,000  Level Kansas City Center
Thu 04:37:51 PM 37.0086 -91.7433 76° East 534 615 37,000 48 Level Kansas City Center
Thu 04:38:55 PM 37.0461 -91.5622 75° East 534 615 37,100  Climbing Kansas City Center
Thu 04:39:55 PM 37.0817 -91.3853 76° East 529 609 37,000 -49 Descending Kansas City Center
Thu 04:40:57 PM 37.1272 -91.1689 75° East 534 615 37,000  Level Kansas City Center
Thu 04:42:01 PM 37.1564 -90.9931 78° East 523 602 37,000  Level Kansas City Center
Thu 04:43:01 PM 37.1642 -90.8183 87° East 507 583 37,000 -68 Level Kansas City Center
Thu 04:43:29 PM 37.1628 -90.7317 91° East 509 586 36,900  Descending Memphis Center
Thu 04:44:29 PM 37.1672 -90.5547 88° East 515 593 37,000 100 Climbing Memphis Center
Thu 04:45:29 PM 37.1694 -90.3778 89° East 515 593 37,100  Climbing Memphis Center
Thu 04:46:29 PM 37.1736 -90.2006 88° East 515 593 37,000 -50 Descending Memphis Center
Thu 04:47:29 PM 37.1772 -90.0236 88° East 515 593 37,000  Level Memphis Center
Thu 04:48:29 PM 37.1789 -89.8442 89° East 515 593 37,000  Level Memphis Center
Thu 04:49:29 PM 37.1906 -89.7008 84° East 515 593 37,000  Level Memphis Center
Thu 04:50:29 PM 37.2289 -89.5078 76° East 515 593 37,000  Level Memphis Center
Thu 04:51:29 PM 37.2733 -89.3300 73° East 520 598 37,000  Level Memphis Center
Thu 04:52:29 PM 37.3178 -89.1547 72° East 520 598 37,000  Level Memphis Center
Thu 04:53:29 PM 37.3597 -88.9767 73° East 520 598 37,000  Level Memphis Center
Thu 04:54:29 PM 37.3992 -88.8008 74° East 520 598 37,000  Level Memphis Center
Thu 04:55:29 PM 37.4428 -88.6278 72° East 520 598 37,000  Level Memphis Center
Thu 04:57:40 PM 37.5308 -88.2206 75° East 525 604 37,000  Level Indianapolis Center
Thu 04:58:42 PM 37.5703 -88.0453 74° East 520 598 37,000  Level Indianapolis Center
Thu 04:59:44 PM 37.6117 -87.8675 74° East 523 602 37,000  Level Indianapolis Center
Thu 05:00:45 PM 37.6506 -87.6914 74° East 519 597 37,000  Level Indianapolis Center
Thu 05:01:47 PM 37.6781 -87.5131 79° East 516 594 37,000  Level Indianapolis Center
Thu 05:02:49 PM 37.6861 -87.3319 87° East 512 589 37,000  Level Indianapolis Center
Thu 05:03:50 PM 37.6933 -87.1608 87° East 511 588 37,000  Level Indianapolis Center
Thu 05:04:52 PM 37.7011 -86.9461 87° East 511 588 37,000  Level Indianapolis Center
Thu 05:05:54 PM 37.7086 -86.7636 87° East 519 597 37,000  Level Indianapolis Center
Thu 05:06:56 PM 37.7150 -86.5811 87° East 521 600 37,000 49 Level Indianapolis Center
Thu 05:07:57 PM 37.7217 -86.3881 87° East 520 598 37,100 -293 Climbing Indianapolis Center
Thu 05:08:59 PM 37.7278 -86.2042 88° East 519 597 36,400 -823 Descending Indianapolis Center
Thu 05:10:01 PM 37.7328 -86.0367 88° East 516 594 35,400 -927 Descending Indianapolis Center
Thu 05:11:02 PM 37.7383 -85.8561 88° East 514 592 34,500 -927 Descending Indianapolis Center
Thu 05:12:04 PM 37.7431 -85.6767 88° East 511 588 33,500 -726 Descending Indianapolis Center
Thu 05:13:06 PM 37.7486 -85.4706 88° East 504 580 33,000 -244 Descending Indianapolis Center
Thu 05:14:07 PM 37.7542 -85.2900 88° East 509 586 33,000  Level Indianapolis Center
Thu 05:15:09 PM 37.7575 -85.1114 89° East 508 585 33,000  Level Indianapolis Center
Thu 05:16:11 PM 37.7606 -84.9322 89° East 508 585 33,000  Level Indianapolis Center
Thu 05:17:12 PM 37.7650 -84.7575 88° East 500 575 33,000  Level Indianapolis Center
Thu 05:18:14 PM 37.7683 -84.5514 89° East 499 574 33,000  Level Indianapolis Center
Thu 05:19:16 PM 37.7725 -84.3761 88° East 498 573 33,000  Level Indianapolis Center
Thu 05:20:17 PM 37.7747 -84.1994 89° East 501 577 33,000  Level Indianapolis Center
Thu 05:21:19 PM 37.7775 -84.0247 89° East 498 573 33,000  Level Indianapolis Center
Thu 05:22:21 PM 37.7792 -83.8525 89° East 492 566 33,000  Level Indianapolis Center
Thu 05:23:22 PM 37.7814 -83.6778 89° East 493 567 33,000  Level Indianapolis Center
Thu 05:24:24 PM 37.7833 -83.5064 89° East 487 560 33,000  Level Indianapolis Center
Thu 05:25:25 PM 37.7847 -83.3350 89° East 487 560 33,000  Level Indianapolis Center
Thu 05:26:27 PM 37.7858 -83.1628 89° East 489 563 33,000  Level Indianapolis Center
Thu 05:27:28 PM 37.7869 -82.9600 90° East 492 566 33,000 -244 Level Indianapolis Center
Thu 05:28:30 PM 37.7878 -82.7883 90° East 488 562 32,500 -726 Descending Indianapolis Center
Thu 05:29:32 PM 37.7881 -82.6167 90° East 487 560 31,500 -732 Descending Indianapolis Center
Thu 05:30:33 PM 37.7889 -82.4497 90° East 479 551 31,000 -244 Descending Indianapolis Center
Thu 05:31:35 PM 37.7878 -82.2817 90° East 478 550 31,000  Level Indianapolis Center
Thu 05:32:36 PM 37.7883 -82.1139 90° East 476 548 31,000  Level Indianapolis Center
Thu 05:33:38 PM 37.7878 -81.9475 90° East 473 544 31,000  Level Indianapolis Center
Thu 05:34:39 PM 37.7867 -81.7822 90° East 470 541 31,000  Level Indianapolis Center
Thu 05:35:41 PM 37.7850 -81.5897 91° East 468 539 31,000  Level Indianapolis Center
Thu 05:36:43 PM 37.7833 -81.4211 91° East 468 539 31,000  Level Indianapolis Center
Thu 05:37:44 PM 37.7828 -81.2614 90° East 468 539 31,000  Level Indianapolis Center
Thu 05:38:00 PM 37.7797 -81.2358 99° East 463 533 31,000  Level Washington Center
Thu 05:39:00 PM 37.7833 -81.0678 88° East 463 533 31,000  Level Washington Center
Thu 05:40:00 PM 37.7947 -80.9083 85° East 458 527 31,000  Level Washington Center
Thu 05:41:00 PM 37.8047 -80.7278 86° East 458 527 31,000  Level Washington Center
Thu 05:42:00 PM 37.8158 -80.5628 85° East 458 527 31,000  Level Washington Center
Thu 05:43:00 PM 37.8286 -80.4006 84° East 463 533 31,000  Level Washington Center
Thu 05:44:00 PM 37.8394 -80.2356 85° East 463 533 31,000  Level Washington Center
Thu 05:45:00 PM 37.8475 -80.0731 86° East 458 527 31,000 -100 Level Washington Center
Thu 05:46:00 PM 37.8572 -79.9264 85° East 458 527 30,800 -550 Descending Washington Center
Thu 05:47:00 PM 37.8692 -79.7639 85° East 458 527 29,900 -850 Descending Washington Center
Thu 05:48:00 PM 37.8789 -79.6039 86° East 458 527 29,100 -450 Descending Washington Center
Thu 05:49:00 PM 37.8864 -79.4411 87° East 458 527 29,000 -50 Descending Washington Center
Thu 05:50:00 PM 37.8956 -79.2758 86° East 458 527 29,000  Level Washington Center
Thu 05:51:00 PM 37.9047 -79.1131 86° East 458 527 29,000  Level Washington Center
Thu 05:52:00 PM 37.9264 -78.9353 81° East 458 527 29,000  Level Washington Center
Thu 05:53:00 PM 37.9433 -78.7753 82° East 463 533 29,000  Level Washington Center
Thu 05:54:00 PM 37.9642 -78.6156 81° East 463 533 29,000  Level Washington Center
Thu 05:55:00 PM 37.9828 -78.4528 82° East 463 533 29,000  Level Washington Center
Thu 05:56:00 PM 38.0008 -78.3086 81° East 463 533 29,000  Level Washington Center
Thu 05:57:00 PM 38.0250 -78.1486 79° East 463 533 29,000  Level Washington Center
Thu 05:58:00 PM 38.0864 -78.0056 61° Northeast 452 520 29,000  Level Washington Center
Thu 05:59:00 PM 38.1581 -77.8653 57° Northeast 452 520 29,000  Level Washington Center
Thu 06:00:00 PM 38.2272 -77.7247 58° Northeast 457 526 29,000  Level Washington Center
Thu 06:01:00 PM 38.2964 -77.5839 58° Northeast 467 537 29,000  Level Washington Center
Thu 06:02:00 PM 38.3656 -77.4428 58° Northeast 472 543 29,000 -200 Level Washington Center
Thu 06:03:00 PM 38.4342 -77.2986 59° Northeast 467 537 28,600 -700 Descending Washington Center
Thu 06:04:00 PM 38.5050 -77.1597 57° Northeast 467 537 27,600 -1,150 Descending Washington Center
Thu 06:05:00 PM 38.5714 -77.0231 58° Northeast 462 532 26,300 -1,300 Descending Washington Center
Thu 06:06:00 PM 38.6353 -76.8886 59° Northeast 452 520 25,000 -1,150 Descending Washington Center
Thu 06:07:00 PM 38.6992 -76.7542 59° Northeast 447 514 24,000 -1,350 Descending Washington Center
Thu 06:08:00 PM 38.7339 -76.6031 74° East 435 501 22,300 -1,750 Descending Washington Center
Thu 06:09:00 PM 38.7622 -76.4594 76° East 429 494 20,500 -1,800 Descending Washington Center
Thu 06:10:00 PM 38.7881 -76.3294 76° East 413 475 18,700 -1,850 Descending Washington Center
Thu 06:11:00 PM 38.8222 -76.1672 75° East 397 457 16,800 -1,750 Descending Washington Center
Thu 06:12:00 PM 38.8500 -76.0447 74° East 392 451 15,200 -950 Descending Washington Center
Thu 06:13:00 PM 38.8775 -75.9169 75° East 384 442 14,900 -970 Descending Washington Center
Thu 06:14:47 PM 39.0069 -75.7300 48° Northeast 378 435 12,500 -1,323 Descending FAA TRACON SMA TRACON (SMA)
Thu 06:15:07 PM 39.0347 -75.7008 39° Northeast 377 434 12,100 -900 Descending FAA TRACON SMA TRACON (SMA)
Thu 06:15:27 PM 39.0672 -75.6803 26° Northeast 379 436 11,900 -750 Descending FAA TRACON SMA TRACON (SMA)
Thu 06:15:47 PM 39.0983 -75.6747 North 370 426 11,600 -1,050 Descending FAA TRACON SMA TRACON (SMA)
Thu 06:16:07 PM 39.1378 -75.6703 North 373 429 11,200 -900 Descending FAA TRACON SMA TRACON (SMA)
Thu 06:16:27 PM 39.1675 -75.6664 North 368 423 11,000 -750 Descending FAA TRACON SMA TRACON (SMA)
Thu 06:16:47 PM 39.1997 -75.6628 North 361 415 10,700 -900 Descending FAA TRACON SMA TRACON (SMA)
Thu 06:17:07 PM 39.2364 -75.6592 North 344 396 10,400 -900 Descending FAA TRACON SMA TRACON (SMA)
Thu 06:17:27 PM 39.2642 -75.6558 North 330 380 10,100 -750 Descending FAA TRACON SMA TRACON (SMA)
Thu 06:17:47 PM 39.2908 -75.6464 15° North 319 367 9,900 -1,050 Descending FAA TRACON SMA TRACON (SMA)
Thu 06:18:07 PM 39.3189 -75.6233 32° Northeast 309 356 9,400 -1,500 Descending FAA TRACON SMA TRACON (SMA)
Thu 06:18:27 PM 39.3425 -75.6028 34° Northeast 324 373 8,900 -1,350 Descending FAA TRACON SMA TRACON (SMA)
Thu 06:18:47 PM 39.3658 -75.5833 33° Northeast 322 371 8,500 -1,350 Descending FAA TRACON SMA TRACON (SMA)
Thu 06:19:07 PM 39.3922 -75.5600 34° Northeast 320 368 8,000 -1,350 Descending FAA TRACON SMA TRACON (SMA)
Thu 06:19:27 PM 39.4169 -75.5403 32° Northeast 316 364 7,600 -1,200 Descending FAA TRACON SMA TRACON (SMA)
Thu 06:19:47 PM 39.4383 -75.5222 33° Northeast 311 358 7,200 -878 Descending FAA TRACON SMA TRACON (SMA)
Thu 06:20:08 PM 39.4633 -75.5006 34° Northeast 302 348 7,000 -300 Descending FAA TRACON SMA TRACON (SMA)
Thu 06:20:27 PM 39.4922 -75.4958 North 316 364 7,000  Level FAA TRACON SMA TRACON (SMA)
Thu 06:20:47 PM 39.5183 -75.5006 352° North 306 352 7,000 -700 Level FAA TRACON SMA TRACON (SMA)
Thu 06:21:27 PM 39.5761 -75.5139 350° North 304 350 6,300 -1,000 Descending FAA TRACON SMA TRACON (SMA)
Thu 06:21:47 PM 39.5986 -75.5200 348° North 301 346 6,000 -450 Descending FAA TRACON SMA TRACON (SMA)
Thu 06:22:07 PM 39.6256 -75.5250 352° North 293 337 6,000  Level FAA TRACON SMA TRACON (SMA)
Thu 06:22:27 PM 39.6542 -75.5311 351° North 261 300 6,000 -150 Level FAA TRACON SMA TRACON (SMA)
Thu 06:22:47 PM 39.6747 -75.5350 352° North 241 277 5,900 -600 Descending FAA TRACON SMA TRACON (SMA)
Thu 06:23:07 PM 39.6944 -75.5392 351° North 228 262 5,600 -1,050 Descending FAA TRACON SMA TRACON (SMA)
Thu 06:23:27 PM 39.7183 -75.5444 350° North 233 268 5,200 -1,050 Descending FAA TRACON SMA TRACON (SMA)
Thu 06:23:47 PM 39.7383 -75.5481 352° North 227 261 4,900 -1,050 Descending FAA TRACON SMA TRACON (SMA)
Thu 06:24:07 PM 39.7572 -75.5517 352° North 223 257 4,500 -1,350 Descending FAA TRACON SMA TRACON (SMA)
Thu 06:24:27 PM 39.7797 -75.5461 11° North 222 255 4,000 -1,200 Descending FAA TRACON SMA TRACON (SMA)
Thu 06:24:47 PM 39.7939 -75.5300 41° Northeast 212 244 3,700 -750 Descending FAA TRACON SMA TRACON (SMA)
Thu 06:25:07 PM 39.8067 -75.5139 44° Northeast 205 236 3,500 -900 Descending FAA TRACON SMA TRACON (SMA)
Thu 06:25:27 PM 39.8164 -75.4922 60° Northeast 188 216 3,100 -750 Descending FAA TRACON SMA TRACON (SMA)
Thu 06:25:47 PM 39.8214 -75.4711 73° East 188 216 3,000 -450 Descending FAA TRACON SMA TRACON (SMA)
Thu 06:26:07 PM 39.8253 -75.4517 75° East 184 212 2,800 -900 Descending FAA TRACON SMA TRACON (SMA)
Thu 06:26:27 PM 39.8300 -75.4275 76° East 181 208 2,400 -900 Descending FAA TRACON SMA TRACON (SMA)
Thu 06:26:47 PM 39.8331 -75.4131 75° East 179 206 2,200 -600 Descending FAA TRACON SMA TRACON (SMA)

Login

Don't have an account? Register now (free) for customized features, flight alerts, and more!